Eulalia, Pennsylvania
Current Conditions -  °F | °C
As of 6:56 PM on Saturday 22 Nov 2014 (Local Time) from KELZ Reporting Station
Overcast Overcast  
Wind Chill: 31°   Ceiling: 900
Heat Index: 39°   Visibility: 10mi
Dew Point: 35°   Wind: 15mph
Humidity: 86%   Direction: 220°SW
Pressure: 30.03"   Gusts: 21mph
Location:  41.7605°N, 77.9728°W
Report Text: KELZ 222356Z AUTO 22013G18KT 10SM BKN009 BKN013 OVC027 04/02 A3003 RMK AO2 RAB08E20 CIG 008V013 SLP194 P0000 60003 I6002 T00390017 10039 20006 58005
Loading
Personal Weather Stations






























Interactive Weather Map New forecast layout! Learn more

10-Day Weather Forecast

Advertisements
Track Severe Weather on mobile